»·PEaware :: VTE250 KABQ-KASE

VTE250 :: KABQ-KASE

FLIGHT INFORMATION

Flight Status: Arrived
Operator: Unknown
More flights by this operator :: More flights under this callsign
Pilot: Andrew J. (13363)
Aircraft: PILATUS PC-12 EAGLE
(PC12)
More flights by this aircraft type
Origin: KABQ Albuquerque Intl Sunport
United States
Destination: KASE Aspen-Pitkin Co/Sardy
United States
More flights between these airports :: More routes between these airports
Route: +PITMN DBL
File this flight plan on PilotEdge
Remarks:
Altitude:
(Current/Filed)
22,000ft
Speed:
(Current/Filed)
276kts
Departed: 05-Feb-18 07:16 PM
Arrived: 05-Feb-18 08:35 PM
Distance/Time
Traveled:
251nm/1:19
Distance/Time
To Go:
Arrived

Flight Plot

Page will automatically refresh every two minutes.

Flight plan parsing failed; only flown route is shown


Map Options




Map Legend


Flown Route
Filed Route
Departure Airport
Arrival Airport
Navaid (VOR, NDB)
Fix

Horizontal Profiles

Position Reports

Time Latitude Longitude Heading Altitude Ground
Speed
05-Feb-18 18:59 35.036212 -106.617862 132 5313ft 0kts
05-Feb-18 19:00 35.036212 -106.617862 132 5313ft 0kts
05-Feb-18 19:01 35.036212 -106.617862 132 5313ft 0kts
05-Feb-18 19:02 35.036212 -106.617862 132 5313ft 0kts
05-Feb-18 19:03 35.036212 -106.617862 132 5313ft 0kts
05-Feb-18 19:04 35.036212 -106.617862 132 5313ft 0kts
05-Feb-18 19:05 35.036212 -106.617862 132 5313ft 0kts
05-Feb-18 19:06 35.036212 -106.617862 132 5313ft 0kts
05-Feb-18 19:07 35.036212 -106.617862 132 5313ft 0kts
05-Feb-18 19:08 35.036212 -106.617862 132 5313ft 0kts
05-Feb-18 19:09 35.036212 -106.617862 132 5313ft 0kts
05-Feb-18 19:10 35.036212 -106.617862 132 5313ft 0kts
05-Feb-18 19:11 35.036212 -106.617862 132 5313ft 0kts
05-Feb-18 19:11 35.036212 -106.617862 132 5313ft 0kts
05-Feb-18 19:12 35.036212 -106.617862 132 5313ft 0kts
05-Feb-18 19:14 35.036212 -106.617862 132 5313ft 0kts
05-Feb-18 19:15 35.036212 -106.617862 132 5313ft 0kts
05-Feb-18 19:15 35.036212 -106.617862 132 5313ft 0kts
05-Feb-18 19:16 35.036212 -106.617862 132 5313ft 0kts
05-Feb-18 19:17 35.036020 -106.617657 140 5313ft 8kts
05-Feb-18 19:18 35.036763 -106.615180 43 5313ft 13kts
05-Feb-18 19:19 35.040367 -106.617743 308 5313ft 21kts
05-Feb-18 19:20 35.043022 -106.621406 357 5313ft 0kts
05-Feb-18 19:21 35.044169 -106.621238 72 5313ft 17kts
05-Feb-18 19:22 35.044271 -106.597354 92 5462ft 123kts
05-Feb-18 19:23 35.072456 -106.587396 317 6718ft 156kts
05-Feb-18 19:24 35.105312 -106.621383 317 8736ft 157kts
05-Feb-18 19:25 35.138881 -106.656211 317 10622ft 162kts
05-Feb-18 19:26 35.180045 -106.678143 343 12475ft 167kts
05-Feb-18 19:27 35.226790 -106.693866 337 14154ft 184kts
05-Feb-18 19:28 35.272966 -106.709418 334 16074ft 176kts
05-Feb-18 19:29 35.321364 -106.725889 333 17720ft 183kts
05-Feb-18 19:30 35.370614 -106.742599 332 19414ft 187kts
05-Feb-18 19:31 35.420832 -106.759654 331 21033ft 191kts
05-Feb-18 19:32 35.473503 -106.777771 332 22052ft 217kts
05-Feb-18 19:33 35.537254 -106.799316 334 22051ft 251kts
05-Feb-18 19:34 35.605912 -106.822528 334 21997ft 261kts
05-Feb-18 19:35 35.675969 -106.846406 334 22049ft 263kts
05-Feb-18 19:36 35.746677 -106.870603 334 22048ft 264kts
05-Feb-18 19:37 35.817706 -106.893304 341 22068ft 269kts
05-Feb-18 19:38 35.890922 -106.903203 343 22075ft 260kts
05-Feb-18 19:39 35.962141 -106.911721 343 22075ft 255kts
05-Feb-18 19:40 36.027994 -106.919765 343 22075ft 254kts
05-Feb-18 19:41 36.098030 -106.928334 343 22075ft 253kts
05-Feb-18 19:42 36.164396 -106.936455 343 22075ft 253kts
05-Feb-18 19:43 36.234291 -106.945016 343 22075ft 253kts
05-Feb-18 19:44 36.304266 -106.953599 343 22075ft 253kts
05-Feb-18 19:45 36.367800 -106.961404 343 22075ft 252kts
05-Feb-18 19:46 36.437286 -106.969968 343 22050ft 253kts
05-Feb-18 19:47 36.507118 -106.978570 343 22048ft 252kts
05-Feb-18 19:48 36.576652 -106.987161 343 22048ft 252kts
05-Feb-18 19:49 36.644804 -106.995599 343 22048ft 251kts
05-Feb-18 19:50 36.714219 -107.004192 344 22050ft 249kts
05-Feb-18 19:51 36.781538 -107.012468 343 22046ft 240kts
05-Feb-18 19:52 36.847403 -107.020713 343 22046ft 237kts
05-Feb-18 19:53 36.912599 -107.028876 342 22072ft 237kts
05-Feb-18 19:54 36.978049 -107.037066 343 22072ft 236kts
05-Feb-18 19:55 37.043089 -107.045200 343 22072ft 236kts
05-Feb-18 19:56 37.107756 -107.053304 343 22074ft 236kts
05-Feb-18 19:57 37.172197 -107.061400 343 22075ft 236kts
05-Feb-18 19:58 37.237490 -107.069606 343 22075ft 236kts
05-Feb-18 19:59 37.302938 -107.077846 343 22075ft 236kts
05-Feb-18 20:00 37.368230 -107.086082 343 22074ft 236kts
05-Feb-18 20:01 37.433486 -107.094353 346 22130ft 239kts
05-Feb-18 20:02 37.500041 -107.102894 351 22156ft 258kts
05-Feb-18 20:03 37.572822 -107.112068 351 22157ft 267kts
05-Feb-18 20:04 37.646968 -107.121442 352 22156ft 270kts
05-Feb-18 20:05 37.721826 -107.130960 351 22156ft 271kts
05-Feb-18 20:06 37.796681 -107.140510 351 22156ft 271kts
05-Feb-18 20:07 37.871791 -107.150104 344 22078ft 274kts
05-Feb-18 20:08 37.945031 -107.159285 343 22069ft 254kts
05-Feb-18 20:09 38.013009 -107.168017 342 22070ft 241kts
05-Feb-18 20:10 38.079274 -107.176672 343 22069ft 238kts
05-Feb-18 20:11 38.138871 -107.184548 349 22075ft 252kts
05-Feb-18 20:12 38.209698 -107.193628 344 22077ft 259kts
05-Feb-18 20:13 38.279043 -107.202377 343 22072ft 245kts
05-Feb-18 20:14 38.345896 -107.211091 342 22072ft 239kts
05-Feb-18 20:15 38.411538 -107.219682 342 22072ft 237kts
05-Feb-18 20:16 38.477075 -107.228231 342 22072ft 237kts
05-Feb-18 20:17 38.542425 -107.236754 342 22072ft 237kts
05-Feb-18 20:18 38.608586 -107.245295 343 21505ft 243kts
05-Feb-18 20:19 38.675845 -107.253872 344 20286ft 248kts
05-Feb-18 20:20 38.745819 -107.263126 351 19077ft 261kts
05-Feb-18 20:21 38.818680 -107.272643 354 17890ft 268kts
05-Feb-18 20:22 38.892414 -107.281826 354 16687ft 265kts
05-Feb-18 20:23 38.963988 -107.291213 354 15991ft 246kts
05-Feb-18 20:24 39.028729 -107.299784 354 15991ft 225kts
05-Feb-18 20:25 39.093359 -107.305248 12 15992ft 244kts
05-Feb-18 20:26 39.144670 -107.256512 43 15993ft 251kts
05-Feb-18 20:27 39.195569 -107.194420 43 15993ft 253kts
05-Feb-18 20:28 39.246720 -107.131952 43 15993ft 254kts
05-Feb-18 20:29 39.298081 -107.069159 43 15993ft 254kts
05-Feb-18 20:30 39.361079 -107.029367 8 15096ft 276kts
05-Feb-18 20:31 39.436145 -107.014751 2 14019ft 263kts
05-Feb-18 20:32 39.505104 -107.016888 358 14018ft 238kts
05-Feb-18 20:33 39.537369 -106.960866 88 14020ft 230kts
05-Feb-18 20:34 39.522984 -106.886101 146 14026ft 230kts
05-Feb-18 20:35 39.463419 -106.865830 192 13990ft 226kts
05-Feb-18 20:36 39.407187 -106.890865 177 13531ft 189kts
05-Feb-18 20:37 39.358122 -106.886252 175 12805ft 169kts
05-Feb-18 20:38 39.310359 -106.894945 200 11840ft 185kts
05-Feb-18 20:39 39.273424 -106.894328 157 9531ft 122kts
05-Feb-18 20:40 39.246065 -106.879906 157 8042ft 102kts
05-Feb-18 20:42 39.225801 -106.869107 63 7777ft 2kts
05-Feb-18 20:43 39.223299 -106.867760 156 7777ft 22kts
05-Feb-18 20:44 39.221788 -106.865661 249 7777ft 4kts
05-Feb-18 20:45 39.221734 -106.865834 250 7777ft 0kts
05-Feb-18 20:46 39.221734 -106.865834 250 7777ft 0kts
05-Feb-18 20:47 39.221734 -106.865834 250 7777ft 0kts
05-Feb-18 20:48 39.221734 -106.865834 250 7777ft 0kts
05-Feb-18 20:49 39.221734 -106.865834 250 7777ft 0kts
05-Feb-18 20:50 39.221734 -106.865834 250 7777ft 0kts

Navigation Log

Ident Type
Flight plan parsing failed, navigation log unavailable